createdAt,value
2023-04-17T00:01:16.727Z,8.85
2023-04-17T00:03:48.717Z,8.85
2023-04-17T00:06:21.074Z,9.01
2023-04-17T00:08:53.733Z,9.12
2023-04-17T00:11:26.800Z,9.12
2023-04-17T00:13:58.732Z,9.21
2023-04-17T00:16:31.075Z,9.28
2023-04-17T00:19:03.104Z,9.25
2023-04-17T00:21:35.418Z,9.17
2023-04-17T00:24:07.661Z,9.20
2023-04-17T00:26:40.760Z,9.21
2023-04-17T00:29:12.855Z,9.27
2023-04-17T00:31:45.505Z,9.26
2023-04-17T00:34:17.424Z,9.31
2023-04-17T00:36:49.677Z,9.33
2023-04-17T00:39:21.673Z,9.25
2023-04-17T00:41:53.971Z,9.20
2023-04-17T00:44:26.341Z,9.23
2023-04-17T00:46:59.074Z,9.28
2023-04-17T00:49:31.423Z,9.22
2023-04-17T00:52:03.888Z,9.23
2023-04-17T00:54:36.410Z,9.17
2023-04-17T00:57:08.721Z,9.11
2023-04-17T00:59:41.479Z,9.14
2023-04-17T01:02:13.975Z,9.14
2023-04-17T01:04:46.338Z,9.11
2023-04-17T01:07:19.154Z,9.12
2023-04-17T01:09:51.110Z,9.11
2023-04-17T01:12:25.005Z,9.03
2023-04-17T01:14:57.824Z,9.13
2023-04-17T01:17:31.290Z,9.12
2023-04-17T01:20:07.271Z,9.15
2023-04-17T01:22:39.861Z,9.15
2023-04-17T01:25:11.954Z,9.18
2023-04-17T01:27:45.193Z,9.10
2023-04-17T01:30:17.140Z,9.02
2023-04-17T01:32:58.376Z,9.08
2023-04-17T01:35:30.396Z,9.06
2023-04-17T01:38:03.787Z,9.14
2023-04-17T01:40:36.007Z,9.13
2023-04-17T01:43:09.191Z,9.09
2023-04-17T01:45:41.533Z,9.12
2023-04-17T01:48:14.544Z,8.99
2023-04-17T01:50:46.747Z,9.06
2023-04-17T01:53:19.387Z,9.13
2023-04-17T01:55:52.143Z,9.17
2023-04-17T01:58:24.860Z,9.14
2023-04-17T02:00:57.243Z,9.16
2023-04-17T02:03:29.942Z,9.17
2023-04-17T02:06:02.386Z,9.10
2023-04-17T02:08:34.999Z,9.03
2023-04-17T02:11:10.420Z,9.10
2023-04-17T02:13:42.311Z,9.02
2023-04-17T02:16:14.944Z,9.09
2023-04-17T02:18:48.392Z,9.05
2023-04-17T02:21:21.602Z,9.01
2023-04-17T02:23:53.873Z,8.94
2023-04-17T02:26:26.474Z,9.01
2023-04-17T02:28:58.393Z,9.08
2023-04-17T02:31:31.664Z,9.14
2023-04-17T02:34:03.582Z,9.11
2023-04-17T02:36:36.708Z,9.13
2023-04-17T02:39:09.072Z,9.16
2023-04-17T02:41:42.050Z,9.14
2023-04-17T02:44:14.646Z,9.17
2023-04-17T02:46:47.630Z,9.17
2023-04-17T02:49:19.959Z,9.20
2023-04-17T02:51:52.985Z,9.17
2023-04-17T02:54:24.948Z,9.22
2023-04-17T02:56:58.881Z,9.21
2023-04-17T02:59:31.013Z,9.13
2023-04-17T03:02:04.572Z,9.06
2023-04-17T03:04:38.742Z,9.16
2023-04-17T03:07:11.550Z,9.15
2023-04-17T03:09:47.145Z,9.15
2023-04-17T03:12:20.195Z,9.11
2023-04-17T03:14:52.260Z,9.15
2023-04-17T03:17:24.938Z,9.09
2023-04-17T03:19:57.440Z,9.12
2023-04-17T03:22:30.083Z,9.19
2023-04-17T03:25:02.804Z,9.07
2023-04-17T03:27:41.821Z,9.01
2023-04-17T03:30:15.030Z,8.96
2023-04-17T03:32:51.373Z,8.94
2023-04-17T03:35:25.234Z,9.51
2023-04-17T03:37:57.159Z,9.36
2023-04-17T03:40:30.700Z,9.24
2023-04-17T03:43:04.362Z,9.07
2023-04-17T03:45:38.061Z,9.12
2023-04-17T03:48:10.456Z,9.09
2023-04-17T03:50:44.161Z,9.12
2023-04-17T03:53:16.507Z,9.07
2023-04-17T03:55:49.280Z,9.14
2023-04-17T03:58:29.927Z,9.00
2023-04-17T04:01:03.741Z,8.95
2023-04-17T04:03:39.967Z,8.87
2023-04-17T04:06:12.629Z,8.94
2023-04-17T04:08:45.363Z,8.96
2023-04-17T04:11:18.264Z,8.93
2023-04-17T04:13:50.347Z,8.98
2023-04-17T04:16:23.036Z,9.12
2023-04-17T04:18:58.424Z,9.19
2023-04-17T04:21:31.414Z,9.15
2023-04-17T04:24:03.398Z,9.18
2023-04-17T04:26:37.258Z,9.19
2023-04-17T04:29:09.929Z,9.20
2023-04-17T04:31:53.659Z,9.21
2023-04-17T04:34:30.215Z,9.21
2023-04-17T04:37:02.207Z,9.16
2023-04-17T04:39:43.465Z,9.17
2023-04-17T04:42:22.977Z,9.20
2023-04-17T04:45:07.385Z,9.21
2023-04-17T04:47:41.184Z,9.24
2023-04-17T04:50:13.873Z,9.23
2023-04-17T04:52:46.041Z,9.21
2023-04-17T04:55:35.905Z,9.17
2023-04-17T04:58:07.826Z,9.27
2023-04-17T05:00:43.918Z,9.21
2023-04-17T05:03:22.470Z,9.25
2023-04-17T05:05:56.161Z,9.26
2023-04-17T05:08:33.306Z,9.29
2023-04-17T05:11:14.841Z,9.18
2023-04-17T05:13:47.602Z,9.26
2023-04-17T05:16:28.753Z,9.25
2023-04-17T05:19:01.572Z,9.31
2023-04-17T05:21:50.642Z,9.32
2023-04-17T05:24:25.725Z,9.35
2023-04-17T05:26:58.191Z,9.39
2023-04-17T05:29:30.899Z,9.37
2023-04-17T05:32:04.527Z,9.29
2023-04-17T05:34:56.680Z,9.23
2023-04-17T05:37:31.678Z,9.17
2023-04-17T05:40:06.918Z,9.20
2023-04-17T05:42:39.414Z,9.22
2023-04-17T05:45:15.405Z,9.32
2023-04-17T05:47:47.790Z,9.27
2023-04-17T05:50:20.503Z,9.32
2023-04-17T05:52:52.752Z,9.36
2023-04-17T05:55:28.103Z,9.32
2023-04-17T05:58:07.996Z,9.42
2023-04-17T06:00:56.366Z,9.39
2023-04-17T06:03:29.470Z,9.40
2023-04-17T06:06:11.104Z,9.53
2023-04-17T06:08:43.397Z,9.52
2023-04-17T06:11:17.490Z,9.49
2023-04-17T06:13:51.933Z,9.62
2023-04-17T06:16:24.957Z,9.74
2023-04-17T06:18:56.854Z,9.78
2023-04-17T06:21:29.478Z,9.78
2023-04-17T06:24:06.513Z,9.89
2023-04-17T06:26:39.090Z,9.96
2023-04-17T06:29:13.905Z,10.24
2023-04-17T06:31:47.102Z,10.30
2023-04-17T06:34:22.170Z,10.22
2023-04-17T06:36:55.217Z,10.46
2023-04-17T06:39:27.600Z,10.44
2023-04-17T06:42:00.767Z,10.38
2023-04-17T06:44:33.274Z,10.40
2023-04-17T06:47:06.954Z,10.36
2023-04-17T06:49:43.022Z,10.58
2023-04-17T06:52:20.513Z,10.26
2023-04-17T06:54:54.896Z,10.29
2023-04-17T06:57:27.888Z,10.42
2023-04-17T06:59:59.981Z,10.49
2023-04-17T07:02:32.729Z,10.51
2023-04-17T07:05:08.474Z,10.64
2023-04-17T07:07:41.524Z,10.58
2023-04-17T07:10:16.265Z,10.56
2023-04-17T07:12:48.192Z,10.67
2023-04-17T07:15:21.043Z,10.61
2023-04-17T07:17:52.947Z,10.67
2023-04-17T07:20:25.569Z,10.74
2023-04-17T07:22:57.468Z,10.80
2023-04-17T07:25:30.090Z,10.48
2023-04-17T07:28:04.408Z,10.64
2023-04-17T07:30:37.677Z,10.61
2023-04-17T07:33:10.287Z,10.70
2023-04-17T07:35:43.751Z,10.86
2023-04-17T07:38:16.059Z,10.92
2023-04-17T07:40:48.628Z,10.88
2023-04-17T07:43:20.899Z,10.89
2023-04-17T07:45:54.012Z,10.82
2023-04-17T07:48:27.306Z,10.90
2023-04-17T07:51:03.371Z,10.96
2023-04-17T07:53:36.221Z,11.02
2023-04-17T07:56:08.507Z,11.11
2023-04-17T07:58:40.394Z,11.06
2023-04-17T08:01:13.968Z,11.39
2023-04-17T08:03:46.194Z,11.44
2023-04-17T08:06:19.215Z,11.45
2023-04-17T08:08:51.116Z,11.42
2023-04-17T08:11:23.834Z,11.41
2023-04-17T08:13:55.894Z,11.43
2023-04-17T08:16:28.378Z,11.40
2023-04-17T08:19:00.538Z,11.44
2023-04-17T08:21:33.237Z,11.44
2023-04-17T08:24:05.854Z,11.40
2023-04-17T08:26:38.453Z,11.50
2023-04-17T08:29:10.521Z,11.52
2023-04-17T08:31:43.647Z,11.56
2023-04-17T08:34:15.843Z,11.66
2023-04-17T08:36:48.490Z,11.68
2023-04-17T08:39:20.668Z,11.74
2023-04-17T08:42:03.213Z,11.74
2023-04-17T08:44:35.730Z,11.69
2023-04-17T08:47:09.730Z,11.89
2023-04-17T08:49:43.770Z,11.66
2023-04-17T08:52:17.161Z,11.67
2023-04-17T08:54:51.364Z,11.75
2023-04-17T08:57:24.183Z,11.65
2023-04-17T08:59:56.320Z,11.61
2023-04-17T09:02:28.747Z,11.72
2023-04-17T09:05:01.753Z,11.58
2023-04-17T09:07:34.585Z,11.47
2023-04-17T09:10:07.041Z,11.53
2023-04-17T09:12:42.097Z,11.58
2023-04-17T09:15:17.956Z,11.96
2023-04-17T09:17:50.884Z,12.24
2023-04-17T09:20:22.963Z,12.35
2023-04-17T09:23:05.704Z,12.38
2023-04-17T09:25:37.955Z,12.46
2023-04-17T09:28:13.717Z,12.16
2023-04-17T09:30:46.822Z,12.04
2023-04-17T09:33:18.692Z,12.07
2023-04-17T09:35:51.436Z,12.29
2023-04-17T09:38:39.964Z,12.43
2023-04-17T09:41:27.926Z,12.71
2023-04-17T09:44:01.889Z,13.00
2023-04-17T09:46:39.152Z,13.38
2023-04-17T09:49:42.680Z,15.64
2023-04-17T09:52:15.951Z,16.18
2023-04-17T09:54:49.236Z,15.48
2023-04-17T09:59:57.745Z,13.91
2023-04-17T10:02:29.938Z,13.71
2023-04-17T10:05:04.933Z,13.29
2023-04-17T10:07:37.889Z,13.10
2023-04-17T10:10:13.717Z,12.96
2023-04-17T10:12:49.469Z,12.79
2023-04-17T10:15:23.916Z,13.02
2023-04-17T10:18:23.662Z,13.10
2023-04-17T10:20:57.156Z,13.37
2023-04-17T10:23:34.830Z,13.62
2023-04-17T10:26:25.831Z,13.55
2023-04-17T10:28:58.175Z,13.57
2023-04-17T10:32:09.052Z,13.69
2023-04-17T10:34:43.884Z,13.62
2023-04-17T10:37:17.446Z,13.62
2023-04-17T10:39:56.729Z,13.70
2023-04-17T10:42:30.598Z,13.75
2023-04-17T10:45:05.232Z,13.49
2023-04-17T10:47:39.317Z,13.33
2023-04-17T10:50:11.318Z,13.24
2023-04-17T10:52:45.748Z,13.13
2023-04-17T10:55:23.567Z,12.81
2023-04-17T10:58:05.799Z,12.65
2023-04-17T11:00:50.002Z,12.53
2023-04-17T11:03:26.926Z,12.43
2023-04-17T11:06:00.575Z,12.32
2023-04-17T11:08:32.569Z,12.39
2023-04-17T11:11:05.279Z,12.59
2023-04-17T11:13:37.623Z,12.78
2023-04-17T11:16:10.209Z,13.04
2023-04-17T11:18:45.970Z,12.98
2023-04-17T11:21:19.252Z,13.12
2023-04-17T11:23:55.028Z,13.21
2023-04-17T11:26:27.676Z,13.49
2023-04-17T11:29:01.042Z,14.03
2023-04-17T11:31:33.798Z,14.42
2023-04-17T11:34:08.350Z,14.62
2023-04-17T11:36:41.087Z,14.92
2023-04-17T11:39:15.754Z,14.89
2023-04-17T11:44:21.015Z,14.42
2023-04-17T11:46:59.238Z,14.01
2023-04-17T11:49:33.470Z,13.99
2023-04-17T11:52:06.422Z,13.94
2023-04-17T11:54:38.623Z,13.88
2023-04-17T11:57:15.079Z,13.76
2023-04-17T11:59:46.990Z,13.41
2023-04-17T12:02:33.980Z,13.38
2023-04-17T12:05:18.357Z,13.34
2023-04-17T12:08:06.330Z,13.42
2023-04-17T12:10:44.808Z,13.83
2023-04-17T12:13:16.684Z,14.09
2023-04-17T12:15:49.976Z,14.28
2023-04-17T12:18:22.308Z,14.25
2023-04-17T12:20:55.400Z,14.28
2023-04-17T12:23:27.270Z,14.75
2023-04-17T12:25:59.917Z,15.24
2023-04-17T12:28:31.840Z,15.54
2023-04-17T12:31:05.360Z,15.58
2023-04-17T12:33:37.695Z,15.49
2023-04-17T12:36:10.494Z,15.73
2023-04-17T12:38:43.112Z,15.95
2023-04-17T12:41:15.803Z,15.47
2023-04-17T12:43:47.717Z,15.22
2023-04-17T12:46:20.795Z,15.13
2023-04-17T12:48:59.183Z,15.13
2023-04-17T12:51:37.948Z,15.29
2023-04-17T12:54:10.299Z,15.46
2023-04-17T12:56:43.262Z,15.81
2023-04-17T12:59:15.254Z,16.25
2023-04-17T13:01:47.861Z,16.54
2023-04-17T13:04:20.173Z,16.34
2023-04-17T13:06:54.896Z,17.09
2023-04-17T13:09:26.804Z,16.85
2023-04-17T13:11:59.073Z,16.46
2023-04-17T13:14:30.976Z,16.15
2023-04-17T13:17:04.214Z,15.55
2023-04-17T13:19:36.832Z,14.93
2023-04-17T13:22:09.327Z,14.52
2023-04-17T13:24:41.897Z,14.38
2023-04-17T13:27:14.947Z,14.28
2023-04-17T13:29:46.794Z,13.81
2023-04-17T13:32:19.418Z,13.72
2023-04-17T13:34:52.044Z,13.64
2023-04-17T13:37:24.527Z,13.47
2023-04-17T13:39:57.135Z,13.59
2023-04-17T13:42:29.023Z,13.93
2023-04-17T13:45:01.601Z,14.32
2023-04-17T13:47:33.548Z,14.32
2023-04-17T13:50:07.150Z,14.40
2023-04-17T13:52:39.122Z,14.65
2023-04-17T13:55:14.827Z,14.37
2023-04-17T13:57:47.301Z,14.62
2023-04-17T14:00:22.359Z,15.01
2023-04-17T14:02:54.341Z,15.73
2023-04-17T14:05:27.048Z,15.90
2023-04-17T14:07:59.100Z,15.24
2023-04-17T14:10:31.358Z,14.95
2023-04-17T14:13:03.281Z,14.81
2023-04-17T14:15:36.009Z,15.53
2023-04-17T14:18:09.737Z,15.72
2023-04-17T14:20:42.435Z,15.59
2023-04-17T14:23:14.377Z,15.47
2023-04-17T14:25:47.315Z,15.14
2023-04-17T14:28:21.015Z,15.11
2023-04-17T14:30:53.518Z,14.89
2023-04-17T14:33:25.684Z,14.91
2023-04-17T14:35:58.673Z,14.42
2023-04-17T14:38:30.716Z,14.27
2023-04-17T14:41:03.559Z,14.45
2023-04-17T14:43:35.630Z,14.98
2023-04-17T14:46:08.277Z,15.36
2023-04-17T14:48:54.264Z,15.29
2023-04-17T14:51:30.222Z,15.36
2023-04-17T14:54:03.402Z,15.45
2023-04-17T14:56:35.324Z,15.44
2023-04-17T14:59:07.722Z,15.33
2023-04-17T15:01:39.668Z,15.23
2023-04-17T15:04:12.796Z,15.19
2023-04-17T15:06:45.021Z,15.12
2023-04-17T15:09:17.283Z,14.93
2023-04-17T15:11:49.235Z,14.95
2023-04-17T15:14:22.214Z,15.03
2023-04-17T15:16:54.246Z,14.92
2023-04-17T15:19:26.972Z,15.00
2023-04-17T15:21:58.848Z,14.93
2023-04-17T15:24:32.230Z,14.95
2023-04-17T15:27:04.171Z,14.75
2023-04-17T15:29:37.183Z,14.52
2023-04-17T15:32:09.550Z,14.46
2023-04-17T15:34:42.182Z,14.41
2023-04-17T15:37:14.118Z,14.11
2023-04-17T15:39:46.823Z,14.10
2023-04-17T15:42:18.765Z,14.07
2023-04-17T15:44:51.419Z,13.67
2023-04-17T15:47:23.827Z,13.71
2023-04-17T15:49:56.518Z,14.09
2023-04-17T15:52:28.861Z,13.97
2023-04-17T15:55:01.900Z,14.06
2023-04-17T15:57:33.857Z,14.02
2023-04-17T16:00:07.645Z,13.99
2023-04-17T16:02:42.742Z,13.86
2023-04-17T16:05:19.010Z,13.77
2023-04-17T16:07:51.384Z,13.88
2023-04-17T16:10:24.169Z,14.05
2023-04-17T16:12:56.484Z,14.05
2023-04-17T16:15:29.111Z,13.99
2023-04-17T16:18:02.478Z,15.29
2023-04-17T16:20:35.365Z,15.89
2023-04-17T16:23:08.088Z,14.52
2023-04-17T16:25:40.366Z,14.13
2023-04-17T16:28:13.048Z,13.95
2023-04-17T16:30:45.042Z,13.90
2023-04-17T16:33:17.671Z,13.72
2023-04-17T16:35:49.990Z,13.73
2023-04-17T16:38:23.099Z,13.56
2023-04-17T16:40:57.072Z,13.48
2023-04-17T16:43:33.555Z,13.30
2023-04-17T16:46:14.319Z,13.43
2023-04-17T16:48:51.548Z,13.66
2023-04-17T16:51:26.985Z,13.79
2023-04-17T16:54:00.764Z,13.74
2023-04-17T16:56:33.259Z,13.42
2023-04-17T16:59:06.191Z,13.23
2023-04-17T17:01:38.157Z,12.74
2023-04-17T17:04:10.930Z,12.46
2023-04-17T17:06:43.322Z,12.25
2023-04-17T17:09:16.093Z,12.10
2023-04-17T17:11:48.684Z,11.92
2023-04-17T17:14:21.390Z,11.73
2023-04-17T17:16:53.797Z,11.63
2023-04-17T17:19:27.111Z,11.56
2023-04-17T17:21:59.046Z,11.49
2023-04-17T17:24:31.759Z,11.53
2023-04-17T17:27:04.081Z,11.45
2023-04-17T17:29:36.636Z,11.47
2023-04-17T17:32:09.294Z,11.59
2023-04-17T17:34:41.982Z,11.60
2023-04-17T17:37:14.261Z,11.48
2023-04-17T17:39:47.239Z,11.48
2023-04-17T17:42:19.527Z,11.30
2023-04-17T17:44:52.535Z,11.35
2023-04-17T17:47:24.473Z,11.23
2023-04-17T17:49:57.514Z,11.17
2023-04-17T17:52:29.402Z,10.99
2023-04-17T17:55:02.273Z,10.95
2023-04-17T17:57:45.998Z,10.85
2023-04-17T18:00:21.360Z,10.73
2023-04-17T18:02:53.508Z,10.71
2023-04-17T18:05:26.340Z,10.65
2023-04-17T18:07:58.396Z,10.64
2023-04-17T18:10:30.721Z,10.64
2023-04-17T18:13:03.200Z,10.63
2023-04-17T18:15:36.679Z,10.57
2023-04-17T18:18:08.734Z,10.51
2023-04-17T18:20:41.364Z,10.55
2023-04-17T18:23:13.224Z,10.55
2023-04-17T18:25:45.881Z,10.54
2023-04-17T18:28:18.146Z,11.18
2023-04-17T18:30:50.872Z,12.97
2023-04-17T18:33:22.943Z,12.25
2023-04-17T18:35:55.931Z,11.28
2023-04-17T18:38:27.829Z,10.79
2023-04-17T18:41:01.488Z,10.79
2023-04-17T18:43:33.443Z,10.63
2023-04-17T18:46:08.086Z,10.55
2023-04-17T18:48:40.978Z,10.58
2023-04-17T18:51:14.741Z,10.58
2023-04-17T18:53:47.451Z,10.46
2023-04-17T18:56:19.828Z,10.50
2023-04-17T18:58:53.295Z,10.47
2023-04-17T19:01:25.168Z,10.29
2023-04-17T19:03:57.768Z,10.09
2023-04-17T19:06:31.131Z,10.12
2023-04-17T19:09:04.088Z,10.11
2023-04-17T19:11:36.205Z,10.05
2023-04-17T19:14:09.210Z,10.02
2023-04-17T19:16:41.597Z,10.02
2023-04-17T19:19:14.537Z,10.03
2023-04-17T19:21:46.556Z,9.93
2023-04-17T19:24:19.610Z,10.05
2023-04-17T19:26:51.539Z,9.98
2023-04-17T19:29:24.582Z,10.00
2023-04-17T19:31:56.539Z,10.00
2023-04-17T19:34:29.610Z,9.95
2023-04-17T19:37:01.534Z,9.95
2023-04-17T19:39:34.150Z,9.96
2023-04-17T19:42:06.713Z,9.90
2023-04-17T19:44:39.704Z,10.00
2023-04-17T19:47:12.132Z,9.85
2023-04-17T19:49:45.166Z,9.87
2023-04-17T19:52:17.079Z,9.90
2023-04-17T19:54:51.212Z,9.89
2023-04-17T19:57:23.150Z,9.85
2023-04-17T19:59:55.760Z,9.79
2023-04-17T20:02:27.843Z,9.68
2023-04-17T20:05:00.960Z,9.77
2023-04-17T20:07:33.353Z,9.63
2023-04-17T20:10:06.753Z,9.55
2023-04-17T20:12:39.086Z,9.69
2023-04-17T20:15:11.497Z,9.44
2023-04-17T20:17:44.252Z,9.33
2023-04-17T20:20:16.268Z,9.58
2023-04-17T20:22:49.433Z,9.47
2023-04-17T20:25:21.330Z,9.40
2023-04-17T20:27:55.514Z,9.49
2023-04-17T20:30:29.061Z,9.47
2023-04-17T20:33:01.961Z,9.42
2023-04-17T20:35:34.059Z,9.35
2023-04-17T20:38:06.615Z,9.33
2023-04-17T20:40:38.976Z,9.41
2023-04-17T20:43:13.344Z,9.35
2023-04-17T20:45:45.283Z,9.25
2023-04-17T20:48:18.722Z,9.16
2023-04-17T20:50:51.277Z,9.13
2023-04-17T20:53:23.876Z,9.05
2023-04-17T20:55:57.788Z,9.16
2023-04-17T20:58:30.611Z,9.16
2023-04-17T21:01:03.485Z,9.22
2023-04-17T21:03:36.100Z,9.24
2023-04-17T21:06:08.164Z,9.28
2023-04-17T21:08:40.897Z,9.27
2023-04-17T21:11:12.777Z,9.24
2023-04-17T21:13:45.813Z,9.14
2023-04-17T21:16:18.129Z,9.08
2023-04-17T21:18:50.839Z,9.17
2023-04-17T21:21:22.730Z,9.21
2023-04-17T21:23:55.273Z,9.03
2023-04-17T21:26:27.550Z,8.99
2023-04-17T21:29:00.133Z,9.08
2023-04-17T21:31:32.200Z,8.92
2023-04-17T21:34:04.815Z,8.94
2023-04-17T21:36:36.768Z,8.89
2023-04-17T21:39:09.715Z,8.94
2023-04-17T21:41:41.612Z,8.85
2023-04-17T21:44:15.224Z,8.79
2023-04-17T21:46:47.386Z,8.78
2023-04-17T21:49:21.022Z,8.61
2023-04-17T21:51:53.279Z,8.61
2023-04-17T21:54:26.726Z,8.59
2023-04-17T21:56:59.448Z,8.53
2023-04-17T21:59:31.364Z,8.53
2023-04-17T22:02:04.588Z,8.45
2023-04-17T22:04:37.102Z,8.62
2023-04-17T22:07:10.241Z,8.71
2023-04-17T22:09:42.127Z,8.58
2023-04-17T22:12:18.080Z,8.53
2023-04-17T22:14:50.289Z,8.52
2023-04-17T22:17:22.617Z,8.61
2023-04-17T22:19:55.797Z,8.93
2023-04-17T22:22:28.353Z,8.74
2023-04-17T22:25:00.232Z,8.56
2023-04-17T22:27:32.880Z,8.52
2023-04-17T22:30:06.305Z,8.59
2023-04-17T22:32:38.898Z,8.61
2023-04-17T22:35:11.257Z,8.74
2023-04-17T22:37:43.918Z,8.82
2023-04-17T22:40:16.278Z,8.97
2023-04-17T22:42:50.291Z,9.17
2023-04-17T22:45:22.596Z,9.22
2023-04-17T22:47:55.241Z,9.32
2023-04-17T22:50:30.270Z,9.39
2023-04-17T22:53:03.693Z,9.38
2023-04-17T22:55:36.466Z,9.44
2023-04-17T22:58:08.508Z,9.45
2023-04-17T23:00:41.490Z,9.44
2023-04-17T23:03:14.197Z,9.47
2023-04-17T23:05:47.277Z,9.45
2023-04-17T23:08:19.240Z,9.40
2023-04-17T23:11:02.130Z,9.30
2023-04-17T23:13:34.507Z,9.25
2023-04-17T23:16:07.508Z,9.16
2023-04-17T23:18:39.773Z,9.11
2023-04-17T23:21:12.346Z,9.03
2023-04-17T23:23:45.252Z,8.99
2023-04-17T23:26:21.718Z,8.92
2023-04-17T23:28:53.586Z,8.88
2023-04-17T23:31:26.612Z,8.74
2023-04-17T23:33:58.538Z,8.76
2023-04-17T23:36:31.978Z,8.88
2023-04-17T23:39:05.629Z,8.93
2023-04-17T23:41:42.493Z,8.99
2023-04-17T23:44:14.832Z,9.07
2023-04-17T23:46:47.943Z,9.13
2023-04-17T23:49:19.914Z,9.14
2023-04-17T23:51:52.466Z,9.07
2023-04-17T23:54:24.504Z,8.95
2023-04-17T23:56:57.174Z,9.00
2023-04-17T23:59:29.437Z,8.98
